Map

Track Data

SID SEASON NUMBER BASIN SUBBASIN NAME ISO_TIME NATURE LAT LON WMO_WIND WMO_PRES WMO_AGENCY TRACK_TYPE DIST2LAND LANDFALL IFLAG USA_AGENCY USA_ATCF_ID USA_LAT USA_LON USA_RECORD USA_STATUS USA_WIND USA_PRES USA_SSHS USA_R34_NE USA_R34_SE USA_R34_SW USA_R34_NW USA_R50_NE USA_R50_SE USA_R50_SW USA_R50_NW USA_R64_NE USA_R64_SE USA_R64_SW USA_R64_NW USA_POCI USA_ROCI USA_RMW USA_EYE TOKYO_LAT TOKYO_LON TOKYO_GRADE TOKYO_WIND TOKYO_PRES TOKYO_R50_DIR TOKYO_R50_LONG TOKYO_R50_SHORT TOKYO_R30_DIR TOKYO_R30_LONG TOKYO_R30_SHORT TOKYO_LAND CMA_LAT CMA_LON CMA_CAT CMA_WIND CMA_PRES HKO_LAT HKO_LON HKO_CAT HKO_WIND HKO_PRES NEWDELHI_LAT NEWDELHI_LON NEWDELHI_GRADE NEWDELHI_WIND NEWDELHI_PRES NEWDELHI_CI NEWDELHI_DP NEWDELHI_POCI REUNION_LAT REUNION_LON REUNION_TYPE REUNION_WIND REUNION_PRES REUNION_TNUM REUNION_CI REUNION_RMW REUNION_R34_NE REUNION_R34_SE REUNION_R34_SW REUNION_R34_NW REUNION_R50_NE REUNION_R50_SE REUNION_R50_SW REUNION_R50_NW REUNION_R64_NE REUNION_R64_SE REUNION_R64_SW REUNION_R64_NW BOM_LAT BOM_LON BOM_TYPE BOM_WIND BOM_PRES BOM_TNUM BOM_CI BOM_RMW BOM_R34_NE BOM_R34_SE BOM_R34_SW BOM_R34_NW BOM_R50_NE BOM_R50_SE BOM_R50_SW BOM_R50_NW BOM_R64_NE BOM_R64_SE BOM_R64_SW BOM_R64_NW BOM_ROCI BOM_POCI BOM_EYE BOM_POS_METHOD BOM_PRES_METHOD NADI_LAT NADI_LON NADI_CAT NADI_WIND NADI_PRES WELLINGTON_LAT WELLINGTON_LON WELLINGTON_WIND WELLINGTON_PRES DS824_LAT DS824_LON DS824_STAGE DS824_WIND DS824_PRES TD9636_LAT TD9636_LON TD9636_STAGE TD9636_WIND TD9636_PRES TD9635_LAT TD9635_LON TD9635_WIND TD9635_PRES TD9635_ROCI NEUMANN_LAT NEUMANN_LON NEUMANN_CLASS NEUMANN_WIND NEUMANN_PRES MLC_LAT MLC_LON MLC_CLASS MLC_WIND MLC_PRES USA_GUST BOM_GUST BOM_GUST_PER REUNION_GUST REUNION_GUST_PER USA_SEAHGT USA_SEARAD_NE USA_SEARAD_SE USA_SEARAD_SW USA_SEARAD_NW STORM_SPEED STORM_DIR
1952350S15053 1953 101 SI MM NOT_NAMED 1952-12-15 06:00:00 TS -15.2000 52.6000 main 225 225 O________OO___ jtwc_sh SH011953 -15.2000 52.6000 -1 -15.2000 52.6000 TC 25 -15.2000 52.6000 7 1 204
1952350S15053 1953 101 SI MM NOT_NAMED 1952-12-15 09:00:00 TS -15.2510 52.5979 main 225 225 P________PP___ SH011953 -15.2375 52.6000 -1 -15.2375 52.6000 TC 25 -15.2781 52.5938 7 1 184
1952350S15053 1953 101 SI MM NOT_NAMED 1952-12-15 12:00:00 TS -15.3183 52.5967 main 225 225 O________OP___ jtwc_sh SH011953 -15.3000 52.6000 -1 -15.3000 52.6000 TC 25 -15.3550 52.5900 7 2 0
1952350S15053 1953 101 SI MM NOT_NAMED 1952-12-15 15:00:00 TS -15.4098 52.5971 main 225 225 P________PP___ SH011953 -15.4000 52.6000 -1 -15.4000 52.6000 TC 30 -15.4294 52.5913 7 2 0
1952350S15053 1953 101 SI MM NOT_NAMED 1952-12-15 18:00:00 TS -15.5000 52.6000 main 225 225 O________OO___ jtwc_sh SH011953 -15.5000 52.6000 -1 -15.5000 52.6000 TC 35 -15.5000 52.6000 2 1 170
1952350S15053 1953 101 SI MM NOT_NAMED 1952-12-15 21:00:00 TS -15.5556 52.6009 main 226 226 P________PP___ SH011953 -15.5500 52.5925 -1 -15.5500 52.5925 TC 35 -15.5669 52.6178 2 1 176
1952350S15053 1953 101 SI MM NOT_NAMED 1952-12-16 00:00:00 TS -15.6117 52.6142 main 226 226 O________OP___ jtwc_sh SH011953 -15.6000 52.6000 -1 -15.6000 52.6000 TC 35 -15.6350 52.6425 2 2 159
1952350S15053 1953 101 SI MM NOT_NAMED 1952-12-16 03:00:00 TS -15.6985 52.6570 main 238 238 P________PP___ SH011953 -15.6925 52.6500 -1 -15.6925 52.6500 TC 35 -15.7106 52.6709 2 2 156
1952350S15053 1953 101 SI MM NOT_NAMED 1952-12-16 06:00:00 TS -15.8000 52.7000 main 239 239 O________OO___ jtwc_sh SH011953 -15.8000 52.7000 -1 -15.8000 52.7000 TC 35 -15.8000 52.7000 2 2 170
1952350S15053 1953 101 SI MM NOT_NAMED 1952-12-16 09:00:00 TS -15.9012 52.7070 main 242 242 P________PP___ SH011953 -15.8925 52.7000 -1 -15.8925 52.7000 TC 35 -15.9187 52.7209 2 2 179
1952350S15053 1953 101 SI MM NOT_NAMED 1952-12-16 12:00:00 TS -16.0167 52.7142 main 244 244 O________OP___ jtwc_sh SH011953 -16.0000 52.7000 -1 -16.0000 52.7000 TC 35 -16.0500 52.7425 2 3 170
1952350S15053 1953 101 SI MM NOT_NAMED 1952-12-16 15:00:00 TS -16.1654 52.7509 main 261 261 P________PP___ SH011953 -16.1575 52.7425 -1 -16.1575 52.7425 TC 35 -16.1812 52.7678 2 3 165
1952350S15053 1953 101 SI MM NOT_NAMED 1952-12-16 18:00:00 TS -16.3000 52.8000 main 265 265 O________OO___ jtwc_sh SH011953 -16.3000 52.8000 -1 -16.3000 52.8000 TC 35 -16.3000 52.8000 2 2 154
1952350S15053 1953 101 SI MM NOT_NAMED 1952-12-16 21:00:00 TS -16.3627 52.8490 main 270 270 P________PP___ SH011953 -16.3575 52.8500 -1 -16.3575 52.8500 TC 35 -16.3731 52.8469 2 1 139
1952350S15053 1953 101 SI MM NOT_NAMED 1952-12-17 00:00:00 TS -16.4117 52.9000 main 280 280 O________OP___ jtwc_sh SH011953 -16.4000 52.9000 -1 -16.4000 52.9000 TC 35 -16.4350 52.9000 2 2 140
1952350S15053 1953 101 SI MM NOT_NAMED 1952-12-17 03:00:00 TS -16.4915 52.9560 main 294 294 P________PP___ SH011953 -16.4850 52.9575 -1 -16.4850 52.9575 TC 35 -16.5044 52.9531 2 2 152
1952350S15053 1953 101 SI MM NOT_NAMED 1952-12-17 06:00:00 TS -16.6000 53.0000 main 299 299 O________OO___ jtwc_sh SH011953 -16.6000 53.0000 -1 -16.6000 53.0000 TC 35 -16.6000 53.0000 2 3 167
1952350S15053 1953 101 SI MM NOT_NAMED 1952-12-17 09:00:00 TS -16.7387 53.0094 main 303 303 P________PP___ SH011953 -16.7350 53.0000 -1 -16.7350 53.0000 TC 35 -16.7462 53.0282 2 3 0
1952350S15053 1953 101 SI MM NOT_NAMED 1952-12-17 12:00:00 TS -16.9067 53.0167 main 313 313 O________OP___ jtwc_sh SH011953 -16.9000 53.0000 -1 -16.9000 53.0000 TC 35 -16.9200 53.0501 2 4 173
1952350S15053 1953 101 SI MM NOT_NAMED 1952-12-17 15:00:00 TS -17.1029 53.0523 main 332 332 P________PP___ SH011953 -17.1000 53.0425 -1 -17.1000 53.0425 TC 35 -17.1087 53.0719 2 4 168
1952350S15053 1953 101 SI MM NOT_NAMED 1952-12-17 18:00:00 TS -17.3000 53.1000 main 341 341 O________OO___ jtwc_sh SH011953 -17.3000 53.1000 -1 -17.3000 53.1000 TC 35 -17.3000 53.1000 2 4 165
1952350S15053 1953 101 SI MM NOT_NAMED 1952-12-17 21:00:00 TS -17.4475 53.1476 main 346 346 P________PP___ SH011953 -17.4500 53.1500 -1 -17.4500 53.1500 TC 35 -17.4425 53.1429 2 3 162
1952350S15053 1953 101 SI MM NOT_NAMED 1952-12-18 00:00:00 TS -17.5967 53.1975 main 366 366 O________OP___ jtwc_sh SH011953 -17.6000 53.2000 -1 -17.6000 53.2000 TC 35 -17.5900 53.1926 2 3 163
1952350S15053 1953 101 SI MM NOT_NAMED 1952-12-18 03:00:00 TS -17.7692 53.2487 main 377 377 P________PP___ SH011953 -17.7700 53.2500 -1 -17.7700 53.2500 TC 35 -17.7675 53.2460 2 4 166
1952350S15053 1953 101 SI MM NOT_NAMED 1952-12-18 06:00:00 TS -18.0000 53.3000 main 394 367 O________OO___ jtwc_sh SH011953 -18.0000 53.3000 -1 -18.0000 53.3000 TC 35 -18.0000 53.3000 2 6 170
1952350S15053 1953 101 SI MM NOT_NAMED 1952-12-18 09:00:00 TS -18.3246 53.3473 main 367 325 P________PP___ SH011953 -18.3200 53.3500 -1 -18.3200 53.3500 TC 35 -18.3337 53.3419 2 7 173
1952350S15053 1953 101 SI MM NOT_NAMED 1952-12-18 12:00:00 TS -18.7067 53.3950 main 325 290 O________OP___ jtwc_sh SH011953 -18.7000 53.4000 -1 -18.7000 53.4000 TC 35 -18.7200 53.3851 2 8 174
1952350S15053 1953 101 SI MM NOT_NAMED 1952-12-18 15:00:00 TS -19.1171 53.4403 main 290 251 P________PP___ SH011953 -19.1150 53.4425 -1 -19.1150 53.4425 TC 35 -19.1212 53.4357 2 8 173
1952350S15053 1953 101 SI MM NOT_NAMED 1952-12-18 18:00:00 TS -19.5000 53.5000 main 251 221 O________OO___ jtwc_sh SH011953 -19.5000 53.5000 -1 -19.5000 53.5000 TC 35 -19.5000 53.5000 2 7 168
1952350S15053 1953 101 SI MM NOT_NAMED 1952-12-18 21:00:00 TS -19.7671 53.5890 main 221 198 P________PP___ SH011953 -19.7650 53.5925 -1 -19.7650 53.5925 TC 35 -19.7713 53.5818 2 5 160
1952350S15053 1953 101 SI MM NOT_NAMED 1952-12-19 00:00:00 TS -20.0067 53.6926 main 198 170 O________OP___ jtwc_sh SH011953 -20.0000 53.7000 -1 -20.0000 53.7000 TC 35 -20.0200 53.6779 2 5 159
1952350S15053 1953 101 SI MM NOT_NAMED 1952-12-19 03:00:00 TS -20.2746 53.7951 main 170 146 P________PP___ SH011953 -20.2700 53.8001 -1 -20.2700 53.8001 TC 35 -20.2837 53.7851 2 6 162
1952350S15053 1953 101 SI MM NOT_NAMED 1952-12-19 06:00:00 TS -20.6000 53.9000 main 146 125 O________OO___ jtwc_sh SH011953 -20.6000 53.9000 -1 -20.6000 53.9000 TC 35 -20.6000 53.9000 2 8 166
1952350S15053 1953 101 SI MM NOT_NAMED 1952-12-19 09:00:00 TS -21.0246 53.9983 main 125 116 P________PP___ SH011953 -21.0200 53.9926 -1 -21.0200 53.9926 TC 35 -21.0337 54.0097 2 9 168
1952350S15053 1953 101 SI MM NOT_NAMED 1952-12-19 12:00:00 TS -21.5067 54.1092 main 122 122 O________OP___ jtwc_sh SH011953 -21.5000 54.1000 -1 -21.5000 54.1000 TC 35 -21.5200 54.1275 2 10 167
1952350S15053 1953 101 SI MM NOT_NAMED 1952-12-19 15:00:00 TS -22.0121 54.2472 main 137 129 P________PP___ SH011953 -22.0075 54.2425 -1 -22.0075 54.2425 TC 35 -22.0212 54.2566 2 10 165
1952350S15053 1953 101 SI MM NOT_NAMED 1952-12-19 18:00:00 TS -22.5000 54.4000 main 163 163 O________OO___ jtwc_sh SH011953 -22.5000 54.4000 -1 -22.5000 54.4000 TC 35 -22.5000 54.4000 2 10 163
1952350S15053 1953 101 SI MM NOT_NAMED 1952-12-19 21:00:00 TS -22.9242 54.5482 main 196 192 P________PP___ SH011953 -22.9225 54.5427 -1 -22.9225 54.5427 TC 35 -22.9276 54.5594 2 9 161
1952350S15053 1953 101 SI MM NOT_NAMED 1952-12-20 00:00:00 TS -23.3034 54.7106 main 231 231 O________OP___ jtwc_sh SH011953 -23.3000 54.7000 -1 -23.3000 54.7000 TC 35 -23.3101 54.7319 2 8 156
1952350S15053 1953 101 SI MM NOT_NAMED 1952-12-20 03:00:00 TS -23.6576 54.8976 main 266 266 P________PP___ SH011953 -23.6551 54.8897 -1 -23.6551 54.8897 TC 35 -23.6626 54.9134 2 8 153
1952350S15053 1953 101 SI MM NOT_NAMED 1952-12-20 06:00:00 TS -24.0000 55.1000 main 295 O________OO___ jtwc_sh SH011953 -24.0000 55.1000 -1 -24.0000 55.1000 TC 35 -24.0000 55.1000 2 8 151

About IBTrACS Database

This database is a web-friendly format of International Best Track Archive for Climate Stewardship (IBTrACS), a global best track data archive curated by NOAA dating back to 1842.

Updated: 2021-10-27